• Join FlightAware (Why Join?)
  • Login
  • US Flag GB Flag 
12:10 EDT


 

Airport Tracker/Info


-or-


 

Live Flight TrackerFlight Track Log ✈ N415JA ✈ 01-Nov-2013 ✈ KMIA - KAUS

Flight Track Log - Related Links

Times and Time Zones

All times are in EDT time to prevent confusion due to time zone crossing. See the N415JA flight status page for this flight to view local times or setup timezone preferences in your user account.

Time Position Orientation Groundspeed Altitude Reporting Facility
EDT Latitude Longitude Course Direction KTS MPH feet Rate Location/Type
11:14 25.8003 -80.2722 77° East 151 174 800  Level Miami Center
11:15 25.8122 -80.2125 77° East 219 252 2,900 2,100 Climbing Miami Center
11:16 25.8214 -80.1714 76° East 232 267 4,000 2,460 Climbing Miami Center
11:17 25.8622 -80.1239 46° Northeast 254 292 6,600 2,580 Climbing Miami Center
11:18 25.9025 -80.1850 306° West 135 155 9,200 2,400 Climbing Miami Center
11:19 25.9194 -80.2664 283° West 201 231 11,500 2,100 Climbing Miami Center
11:20 25.9425 -80.3525 287° West 240 276 13,400 1,800 Climbing Miami Center
11:21 25.9781 -80.4392 295° West 284 327 15,200 1,800 Climbing Miami Center
11:22 26.0175 -80.5281 296° West 304 350 17,000 1,800 Climbing Miami Center
11:23 26.0617 -80.6058 302° West 319 367 18,800 1,680 Climbing Miami Center
11:24 26.1286 -80.6772 316° Northwest 325 374 20,400 1,500 Climbing Miami Center
11:25 26.1978 -80.7489 317° Northwest 331 381 21,900 1,440 Climbing Miami Center
11:26 26.2667 -80.8231 316° Northwest 345 397 23,300 1,440 Climbing Miami Center
11:27 26.3481 -80.9044 318° Northwest 350 403 24,800 1,320 Climbing Miami Center
11:28 26.4172 -80.9742 318° Northwest 355 409 26,000 1,020 Climbing Miami Center
11:29 26.4964 -81.0511 319° Northwest 367 422 26,900 960 Climbing Miami Center
11:30 26.5772 -81.1469 313° West 385 443 28,000 960 Climbing Miami Center
11:31 26.6261 -81.2578 296° West 391 450 28,900 900 Climbing Miami Center
11:32 26.6664 -81.3731 291° West 401 461 29,800 900 Climbing Miami Center
11:33 26.6986 -81.4789 289° West 412 474 30,700 900 Climbing Miami Center
11:34 26.7364 -81.5992 289° West 406 467 31,600 900 Climbing Miami Center
11:35 26.7781 -81.7311 290° West 412 474 32,600 900 Climbing Miami Center
11:36 26.8158 -81.8489 290° West 407 468 33,500 900 Climbing Miami Center
11:37 26.8533 -81.9644 290° West 407 468 34,400 900 Climbing Miami Center
11:38 26.8911 -82.0778 291° West 396 456 35,300 660 Climbing Miami Center
11:39 26.9286 -82.1936 290° West 389 448 35,800 300 Climbing Miami Center
11:40 26.9642 -82.3072 289° West 389 448 36,000 60 Climbing Miami Center
11:41 26.9958 -82.4086 289° West 389 448 36,000  Level Miami Center
11:42 27.0350 -82.5294 290° West 394 453 36,000  Level Miami Center
11:43 27.0775 -82.6644 289° West 407 468 36,000 240 Level Miami Center
11:44 27.1167 -82.7831 290° West 417 480 36,500 540 Climbing Miami Center
11:45 27.1514 -82.9014 288° West 411 473 37,100 600 Climbing Miami Center
11:46 27.1903 -83.0153 291° West 401 461 37,700 600 Climbing Miami Center
11:47 27.2231 -83.1292 288° West 389 448 38,400 600 Climbing Miami Center
11:48 27.2558 -83.2383 289° West 384 442 39,000 540 Climbing Miami Center
11:49 27.2906 -83.3453 290° West 378 435 39,500 480 Climbing Miami Center
11:50 27.3214 -83.4497 288° West 373 429 40,000 240 Climbing Miami Center
11:51 27.3542 -83.5544 289° West 368 423 40,000  Level Miami Center
11:52 27.3867 -83.6592 289° West 368 423 40,000  Level Miami Center
11:53 27.4192 -83.7639 289° West 363 418 40,000  Level Miami Center
11:54 27.4517 -83.8733 289° West 363 418 40,000  Level Miami Center
11:55 27.4858 -83.9828 289° West 363 418 40,000  Level Miami Center
11:56 27.5181 -84.0903 289° West 369 425 40,000  Level Miami Center
11:57 27.5500 -84.1997 288° West 374 430 40,000  Level Miami Center
11:58 27.5819 -84.3094 288° West 374 430 40,000  Level Miami Center
11:59 27.6200 -84.4172 292° West 374 430 40,000  Level Miami Center
12:01 27.6892 -84.6642 288° West 365 420 40,000  Level Jacksonville Center
12:02 27.7233 -84.7631 291° West 365 420 40,000  Level Jacksonville Center
12:03 27.7528 -84.8739 287° West 365 420 40,000  Level Jacksonville Center
12:04 27.7825 -84.9869 287° West 365 420 40,000  Level Jacksonville Center
12:05 27.8161 -85.0933 290° West 365 420 40,000  Level Jacksonville Center
12:06 27.8478 -85.1950 289° West 365 420 40,000  Level Jacksonville Center
12:07 27.8789 -85.3106 287° West 365 420 40,000  Level Jacksonville Center
12:08 27.9103 -85.4147 289° West 365 420 40,000  Level Jacksonville Center
12:09 27.9414 -85.5258 288° West 373 429 40,000  Level Jacksonville Center
12:10 27.9747 -85.6325 290° West 373 429 40,000  Level Jacksonville Center
12:11 28.0036 -85.7436 286° West 367 422 40,000  Level Jacksonville Center
12:12 28.0367 -85.8550 289° West 367 422 40,000  Level Jacksonville Center
12:13 28.0694 -85.9642 289° West 369 425 40,000  Level Jacksonville Center
12:14 28.1019 -86.0828 287° West 375 432 40,000  Level Jacksonville Center
12:15 28.1328 -86.1897 288° West 369 425 40,000  Level Jacksonville Center
12:16 28.1633 -86.2989 288° West 369 425 40,000  Level Jacksonville Center
12:17 28.1956 -86.4156 287° West 369 425 40,000  Level Jacksonville Center
12:18 28.2242 -86.5153 288° West 361 415 40,000  Level Jacksonville Center
12:19 28.2603 -86.6344 289° West 369 425 40,000  Level Jacksonville Center
12:20 28.2864 -86.7414 286° West 369 425 40,000  Level Jacksonville Center
12:21 28.3186 -86.8489 289° West 364 419 40,000  Level Jacksonville Center
12:22 28.3486 -86.9608 287° West 364 419 40,000  Level Jacksonville Center
12:23 28.3825 -87.0731 289° West 369 425 40,000  Level Jacksonville Center
12:25 28.4239 -87.2256 287° West 368 423 40,000  Level Houston Center
12:26 28.4542 -87.3364 287° West 370 426 40,000  Level Houston Center
12:27 28.4833 -87.4478 287° West 369 425 40,000  Level Houston Center
12:28 28.5150 -87.5594 288° West 372 428 40,000  Level Houston Center
12:29 28.5508 -87.6942 287° West 372 428 40,000  Level Houston Center
12:30 28.5803 -87.8058 287° West 370 426 40,000  Level Houston Center
12:31 28.6100 -87.9167 287° West 369 425 40,000  Level Houston Center
12:32 28.6400 -88.0278 287° West 369 425 40,000  Level Houston Center
12:33 28.6697 -88.1553 285° West 366 421 40,000  Level Houston Center
12:34 28.6878 -88.2681 280° West 362 417 40,000  Level Houston Center
12:35 28.7069 -88.3800 281° West 361 415 40,000  Level Houston Center
12:36 28.7256 -88.4928 281° West 364 419 40,000  Level Houston Center
12:37 28.7439 -88.6053 281° West 362 417 40,000  Level Houston Center
12:38 28.7631 -88.7167 281° West 359 413 40,000  Level Houston Center
12:39 28.7836 -88.8467 280° West 351 404 40,000  Level Houston Center
12:40 28.8017 -88.9553 281° West 348 400 40,000  Level Houston Center
12:41 28.8197 -89.0639 281° West 350 403 40,000  Level Houston Center
12:42 28.8364 -89.1697 280° West 344 396 40,000  Level Houston Center
12:43 28.8539 -89.2783 280° West 347 399 40,000  Level Houston Center
12:44 28.8717 -89.3858 281° West 346 398 40,000  Level Houston Center
12:45 28.8928 -89.5164 280° West 348 400 40,000  Level Houston Center
12:46 28.9089 -89.6239 280° West 347 399 40,000  Level Houston Center
12:47 28.9258 -89.7328 280° West 347 399 40,000  Level Houston Center
12:49 28.9428 -89.8392 280° West 343 395 40,000  Level Houston Center
12:50 28.9597 -89.9478 280° West 346 398 40,000  Level Houston Center
12:51 28.9764 -90.0547 280° West 343 395 40,000  Level Houston Center
12:52 28.9964 -90.1847 280° West 346 398 40,000  Level Houston Center
12:53 29.0128 -90.2922 280° West 344 396 40,000  Level Houston Center
12:54 29.0297 -90.3997 280° West 344 396 40,000  Level Houston Center
12:55 29.0458 -90.5069 280° West 342 394 40,000  Level Houston Center
12:56 29.0625 -90.6136 280° West 342 394 40,000  Level Houston Center
12:57 29.0783 -90.7211 280° West 342 394 40,000  Level Houston Center
12:58 29.0978 -90.8497 280° West 343 395 40,000  Level Houston Center
12:59 29.1131 -90.9567 279° West 342 394 40,000  Level Houston Center
13:00 29.1300 -91.0636 280° West 342 394 40,000  Level Houston Center
13:01 29.1450 -91.1717 279° West 344 396 40,000  Level Houston Center
13:02 29.1617 -91.2794 280° West 344 396 40,000  Level Houston Center
13:03 29.1764 -91.3856 279° West 341 392 40,000  Level Houston Center
13:04 29.1950 -91.5136 279° West 340 391 40,000  Level Houston Center
13:05 29.2111 -91.6222 280° West 344 396 40,000  Level Houston Center
13:06 29.2261 -91.7297 279° West 343 395 40,000  Level Houston Center
13:07 29.2406 -91.8356 279° West 339 390 40,000  Level Houston Center
13:08 29.2558 -91.9411 279° West 338 389 40,000  Level Houston Center
13:09 29.2708 -92.0481 279° West 339 390 40,000  Level Houston Center
13:10 29.2886 -92.1769 279° West 341 392 40,000  Level Houston Center
13:11 29.3036 -92.2842 279° West 340 391 40,000  Level Houston Center
13:12 29.3183 -92.3933 279° West 344 396 40,000  Level Houston Center
13:13 29.3325 -92.5011 279° West 343 395 40,000  Level Houston Center
13:14 29.3478 -92.6086 279° West 343 395 40,000  Level Houston Center
13:15 29.3622 -92.7169 279° West 345 397 40,000  Level Houston Center
13:16 29.3792 -92.8450 279° West 340 391 40,000  Level Houston Center
13:18 29.3928 -92.9533 278° West 342 394 40,000  Level Houston Center
13:19 29.4067 -93.0586 279° West 339 390 40,000  Level Houston Center
13:20 29.4208 -93.1656 279° West 338 389 40,000  Level Houston Center
13:21 29.4353 -93.2711 279° West 337 388 40,000  Level Houston Center
13:22 29.4483 -93.3775 278° West 336 387 40,000  Level Houston Center
13:23 29.4647 -93.5069 278° West 340 391 40,000  Level Houston Center
13:24 29.4789 -93.6178 278° West 347 399 40,000  Level Houston Center
13:25 29.4925 -93.7281 278° West 349 402 40,000  Level Houston Center
13:26 29.5067 -93.8389 278° West 350 403 40,000  Level Houston Center
13:27 29.5206 -93.9492 278° West 350 403 40,000  Level Houston Center
13:28 29.5344 -94.0614 278° West 352 405 40,000  Level Houston Center
13:29 29.5511 -94.1956 278° West 353 406 40,000 -60 Level Houston Center
13:30 29.5656 -94.3067 279° West 352 405 39,900 -720 Descending Houston Center
13:31 29.5789 -94.4194 278° West 354 407 38,500 -1,620 Descending Houston Center
13:32 29.5928 -94.5322 278° West 356 410 36,600 -1,800 Descending Houston Center
13:33 29.6053 -94.6414 278° West 349 402 34,800 -1,800 Descending Houston Center
13:34 29.6183 -94.7528 278° West 350 403 32,900 -2,040 Descending Houston Center
13:35 29.6342 -94.8878 278° West 355 409 30,700 -1,440 Descending Houston Center
13:36 29.6486 -95.0008 278° West 358 412 30,000 -360 Descending Houston Center
13:37 29.6606 -95.1139 277° West 357 411 30,000  Level Houston Center
13:38 29.6750 -95.2333 278° West 369 425 30,000  Level Houston Center
13:39 29.6889 -95.3533 278° West 377 434 30,000 -60 Level Houston Center
13:40 29.7044 -95.4886 278° West 385 443 29,900 -480 Descending Houston Center
13:41 29.7186 -95.6103 278° West 386 444 29,100 -1,080 Descending Houston Center
13:42 29.7314 -95.7297 277° West 379 436 27,700 -1,500 Descending Houston Center
13:43 29.7456 -95.8639 277° West 358 412 26,100 -1,680 Descending Houston Center
13:44 29.7572 -95.9736 277° West 349 402 24,300 -1,500 Descending Houston Center
13:45 29.7889 -96.0750 290° West 340 391 23,000 -1,320 Descending Houston Center
13:46 29.8217 -96.1761 291° West 341 392 21,600 -1,440 Descending Houston Center
13:48 29.8575 -96.2819 291° West 352 405 20,100 -1,440 Descending Houston Center
13:49 29.8922 -96.3906 290° West 361 415 18,600 -1,620 Descending Houston Center
13:50 29.9342 -96.5161 291° West 354 407 16,800 -1,560 Descending Houston Center
13:51 29.9683 -96.6192 291° West 349 402 15,400 -1,440 Descending Houston Center
13:52 30.0019 -96.7219 291° West 345 397 13,900 -1,440 Descending Houston Center
13:53 30.0339 -96.8239 290° West 341 392 12,500 -1,380 Descending Houston Center
13:54 30.0600 -96.9172 288° West 314 361 11,100 -1,500 Descending Houston Center
13:55 30.0969 -97.0131 294° West 284 327 9,400 -1,320 Descending Houston Center
13:56 30.1206 -97.0794 292° West 242 278 8,400 -1,020 Descending Houston Center
13:57 30.1450 -97.1511 292° West 237 273 7,300 -1,020 Descending Houston Center
13:58 30.1681 -97.2278 289° West 244 281 6,300 -1,020 Descending Houston Center
13:59 30.1944 -97.3031 292° West 249 287 5,200 -1,200 Descending Houston Center
14:00 30.2256 -97.3839 294° West 239 275 3,900 -1,080 Descending Houston Center
14:01 30.2519 -97.4425 298° West 215 247 3,000 -480 Descending Houston Center
14:02 30.2761 -97.4967 297° West 197 227 3,000 -180 Level Houston Center
14:03 30.2847 -97.5608 279° West 198 228 2,700 -240 Descending Houston Center
14:04 30.2925 -97.6242 278° West 199 229 2,500 -420 Descending Houston Center
14:05 30.2694 -97.6594 233° Southwest 191 220 1,900 -720 Descending Houston Center
14:06 30.2225 -97.6572 178° South 170 196 1,100 -780 Descending Houston Center
14:08 30.1945 -97.6699 270° West  Level Estimated
14:15 30.1945 -97.6699 270° West  Level Estimated